Terminal Aerodrome Forecast
Issued by NWS Jackson, KY

Home | Current Version | Previous Version | Text Only | Print | Product List | Glossary On
Versions: 1 2 3 4 5 6 7 8 9 10 11 12 13 14
000
FTUS43 KJKL 181201 AAA
TAFLOZ
TAF AMD
KLOZ 181201Z 1812/1912 VRB03KT 1SM -DZ BR OVC002
     FM181600 23006KT 3SM -DZ OVC008
     FM182100 23007KT 3SM -DZ OVC010
     FM182300 VRB05KT P6SM BKN010
     FM190700 VRB05KT P6SM BKN008=

USA.gov is the U.S. government's official web portal to all federal, state and local government web resources and services.